Time;durP1;ratioP1;P1;durP2;ratioP2;P2;SDS_P1;SDS_P2;PMS_P1;PMS_P2;Temp;Humidity;BMP_temperature;BMP_pressure;BME280_temperature;BME280_humidity;BME280_pressure;Samples;Min_cycle;Max_cycle;Signal;HPM_P1;HPM_P2
2023/03/28 00:01:00;;;;;;;11.20;2.47;;;;;;;3.12;100.00;102430.09;5050902;28;20053;-75
2023/03/28 00:03:28;;;;;;;17.27;3.65;;;;;;;3.09;100.00;102436.00;5064321;28;20037;-75
2023/03/28 00:05:59;;;;;;;16.13;3.10;;;;;;;3.08;100.00;102438.50;5061228;28;20075;-75
2023/03/28 00:08:28;;;;;;;15.88;2.95;;;;;;;3.05;100.00;102440.97;5065947;28;20056;-75
2023/03/28 00:11:20;;;;;;;16.65;3.00;;;;;;;3.00;100.00;102443.28;5065133;28;20048;-75
2023/03/28 00:13:56;;;;;;;20.08;3.15;;;;;;;2.96;100.00;102449.09;5017066;28;20049;-75
2023/03/28 00:16:26;;;;;;;15.07;3.15;;;;;;;2.91;100.00;102448.84;5053164;28;20403;-75
2023/03/28 00:18:53;;;;;;;10.70;2.78;;;;;;;2.87;100.00;102441.66;5063627;28;20487;-76
2023/03/28 00:21:29;;;;;;;9.75;2.70;;;;;;;2.84;100.00;102445.78;5063370;28;20047;-76
2023/03/28 00:24:00;;;;;;;15.30;2.58;;;;;;;2.82;100.00;102450.00;5064715;28;20052;-75
2023/03/28 00:26:31;;;;;;;11.18;2.97;;;;;;;2.82;100.00;102447.41;5063473;28;20052;-76
2023/03/28 00:29:02;;;;;;;13.90;2.25;;;;;;;2.81;100.00;102442.97;5018425;28;20048;-76
2023/03/28 00:31:31;;;;;;;11.88;2.80;;;;;;;2.81;100.00;102448.19;5055864;28;20044;-76
2023/03/28 00:33:58;;;;;;;13.20;2.50;;;;;;;2.83;100.00;102441.38;5061254;28;20136;-76
2023/03/28 00:36:28;;;;;;;10.85;2.58;;;;;;;2.83;100.00;102443.97;5061514;28;20056;-76
2023/03/28 00:38:56;;;;;;;17.75;2.95;;;;;;;2.83;100.00;102455.28;5059203;28;20040;-76
2023/03/28 00:41:25;;;;;;;13.48;2.83;;;;;;;2.83;100.00;102449.19;5066733;28;20049;-74
2023/03/28 00:43:54;;;;;;;13.73;2.75;;;;;;;2.82;100.00;102447.41;5041795;28;20411;-74
2023/03/28 00:46:35;;;;;;;11.70;3.03;;;;;;;2.81;100.00;102453.41;5023390;28;20048;-74
2023/03/28 00:49:05;;;;;;;13.75;3.03;;;;;;;2.79;100.00;102449.81;5062876;28;20047;-74
2023/03/28 00:51:38;;;;;;;10.60;2.42;;;;;;;2.75;100.00;102443.50;5064683;28;20801;-74
2023/03/28 00:54:14;;;;;;;18.33;2.75;;;;;;;2.74;100.00;102452.13;5043371;28;20044;-74
2023/03/28 00:56:46;;;;;;;10.32;2.97;;;;;;;2.73;100.00;102452.94;5062230;28;20056;-74
2023/03/28 00:59:18;;;;;;;12.70;2.97;;;;;;;2.72;100.00;102452.03;5021261;28;20044;-74
2023/03/28 01:01:46;;;;;;;15.00;4.10;;;;;;;2.70;100.00;102444.94;5045356;28;20052;-74
2023/03/28 01:04:19;;;;;;;16.60;3.42;;;;;;;2.71;100.00;102447.63;5055317;28;20056;-74
2023/03/28 01:06:53;;;;;;;16.48;2.60;;;;;;;2.69;100.00;102445.75;5035393;28;20045;-73
2023/03/28 01:09:27;;;;;;;19.60;3.75;;;;;;;2.68;100.00;102443.94;5047609;28;20099;-74
2023/03/28 01:11:57;;;;;;;18.13;2.90;;;;;;;2.65;100.00;102446.38;5046549;28;20040;-74
2023/03/28 01:14:28;;;;;;;12.60;2.42;;;;;;;2.63;100.00;102448.00;5004302;28;20036;-74
2023/03/28 01:16:57;;;;;;;12.57;2.60;;;;;;;2.62;100.00;102454.88;5051648;28;20558;-74
2023/03/28 01:20:05;;;;;;;20.17;3.03;;;;;;;2.60;100.00;102447.78;5055814;28;20492;-74
2023/03/28 01:22:32;;;;;;;12.88;2.58;;;;;;;2.58;100.00;102447.69;5070251;28;20045;-74
2023/03/28 01:25:25;;;;;;;13.25;2.88;;;;;;;2.59;100.00;102445.97;5066379;28;20055;-74
2023/03/28 01:27:53;;;;;;;18.02;2.92;;;;;;;2.59;100.00;102436.50;5050800;28;20057;-74
2023/03/28 01:31:00;;;;;;;11.60;3.17;;;;;;;2.59;100.00;102444.28;5028990;28;20072;-74
2023/03/28 01:33:49;;;;;;;24.80;4.75;;;;;;;2.58;100.00;102445.09;5049261;28;20145;-74
2023/03/28 01:36:47;;;;;;;12.88;3.13;;;;;;;2.57;100.00;102439.78;5065352;28;20055;-74
2023/03/28 01:39:34;;;;;;;10.73;2.42;;;;;;;2.54;100.00;102443.09;5063247;28;20052;-74
2023/03/28 01:42:25;;;;;;;14.45;2.70;;;;;;;2.51;100.00;102437.69;5056861;28;20466;-74
2023/03/28 01:45:06;;;;;;;12.18;2.80;;;;;;;2.46;100.00;102436.53;5044413;28;20048;-74
2023/03/28 01:47:40;;;;;;;7.88;2.75;;;;;;;2.44;100.00;102443.31;5065863;28;20052;-74
2023/03/28 01:50:24;;;;;;;14.07;2.08;;;;;;;2.39;100.00;102435.25;5033305;28;20427;-74
2023/03/28 01:53:04;;;;;;;12.13;2.17;;;;;;;2.34;100.00;102436.66;5058861;28;20061;-74
2023/03/28 01:55:34;;;;;;;9.10;2.28;;;;;;;2.30;100.00;102438.16;5049640;28;20040;-76
2023/03/28 01:58:15;;;;;;;12.77;2.28;;;;;;;2.25;100.00;102447.41;5052226;28;20052;-75
2023/03/28 02:00:54;;;;;;;11.02;2.10;;;;;;;2.21;100.00;102449.69;5047248;28;20045;-75
2023/03/28 02:03:33;;;;;;;8.60;2.65;;;;;;;2.14;100.00;102445.84;5053001;28;20048;-75
2023/03/28 02:06:08;;;;;;;13.15;2.55;;;;;;;2.11;100.00;102445.63;5039444;28;20051;-75
2023/03/28 02:08:40;;;;;;;17.88;2.70;;;;;;;2.08;100.00;102448.03;5067521;28;20040;-75
2023/03/28 02:11:35;;;;;;;12.88;3.00;;;;;;;2.03;100.00;102442.53;5047866;28;20063;-75
2023/03/28 02:14:40;;;;;;;13.88;2.97;;;;;;;1.98;100.00;102443.94;5053623;28;20052;-75
2023/03/28 02:17:39;;;;;;;8.73;2.28;;;;;;;1.92;100.00;102448.75;5003860;28;20048;-76
2023/03/28 02:20:29;;;;;;;10.48;2.10;;;;;;;1.88;100.00;102450.25;5058902;28;20055;-75
2023/03/28 02:23:19;;;;;;;12.52;2.40;;;;;;;1.85;100.00;102436.16;5066474;28;20040;-73
2023/03/28 02:25:56;;;;;;;10.88;2.47;;;;;;;1.82;100.00;102443.78;5066679;28;20048;-74
2023/03/28 02:28:41;;;;;;;8.45;2.55;;;;;;;1.80;100.00;102440.19;5068243;28;20053;-74
2023/03/28 02:31:31;;;;;;;14.85;2.25;;;;;;;1.77;100.00;102446.06;5071499;28;20048;-74
2023/03/28 02:34:00;;;;;;;9.75;2.72;;;;;;;1.75;100.00;102442.47;5018664;28;20045;-74
2023/03/28 02:36:47;;;;;;;15.88;2.88;;;;;;;1.69;100.00;102437.78;5051385;28;20044;-75
2023/03/28 02:39:41;;;;;;;10.73;2.83;;;;;;;1.63;100.00;102447.78;5050095;28;20045;-75
2023/03/28 02:42:27;;;;;;;9.35;2.47;;;;;;;1.54;100.00;102450.69;5057730;28;20044;-74
2023/03/28 02:45:22;;;;;;;12.95;2.00;;;;;;;1.45;100.00;102444.88;5055226;28;20552;-74
2023/03/28 02:48:13;;;;;;;8.32;2.50;;;;;;;1.36;100.00;102444.25;5035133;28;20053;-74
2023/03/28 02:50:40;;;;;;;;;;;;;;;1.33;100.00;102444.06;5045212;28;20055;-75
2023/03/28 02:53:13;;;;;;;12.80;2.88;;;;;;;1.31;100.00;102445.69;5050644;28;20295;-75
2023/03/28 02:55:55;;;;;;;10.48;2.00;;;;;;;1.28;100.00;102443.75;5046431;28;20056;-75
2023/03/28 02:58:54;;;;;;;14.55;2.67;;;;;;;1.20;100.00;102439.75;5051600;28;20072;-75
2023/03/28 03:01:27;;;;;;;11.15;2.53;;;;;;;1.17;100.00;102453.44;5058882;28;20056;-75
2023/03/28 03:03:57;;;;;;;11.27;2.00;;;;;;;1.13;100.00;102455.72;5022551;28;20076;-74
2023/03/28 03:06:24;;;;;;;8.80;2.47;;;;;;;1.07;100.00;102453.59;5057973;28;20039;-74
2023/03/28 03:08:52;;;;;;;14.65;2.38;;;;;;;1.05;100.00;102454.31;5049310;28;20052;-74
2023/03/28 03:11:26;;;;;;;8.85;2.00;;;;;;;1.03;100.00;102455.91;5065533;28;20052;-74
2023/03/28 03:13:56;;;;;;;11.65;2.63;;;;;;;1.03;100.00;102456.81;5046772;28;20063;-74
2023/03/28 03:16:23;;;;;;;10.82;2.40;;;;;;;1.05;100.00;102460.41;5053643;28;20066;-74
2023/03/28 03:18:52;;;;;;;10.93;2.30;;;;;;;1.07;100.00;102463.09;5012557;28;20052;-74
2023/03/28 03:21:20;;;;;;;9.00;2.50;;;;;;;1.07;100.00;102463.09;5040061;28;20061;-74
2023/03/28 03:23:48;;;;;;;10.35;2.50;;;;;;;1.06;100.00;102456.09;5033907;28;20056;-74
2023/03/28 03:26:16;;;;;;;8.85;1.85;;;;;;;1.04;100.00;102452.50;5067122;28;20037;-74
2023/03/28 03:29:03;;;;;;;12.10;2.15;;;;;;;1.02;100.00;102457.63;5065872;28;20048;-74
2023/03/28 03:31:31;;;;;;;13.73;3.03;;;;;;;1.01;100.00;102460.09;5066428;28;20060;-76
2023/03/28 03:34:17;;;;;;;11.88;2.83;;;;;;;0.99;100.00;102462.59;5022135;28;20070;-75
2023/03/28 03:36:54;;;;;;;13.15;2.60;;;;;;;0.99;100.00;102453.91;5008660;28;20049;-76
2023/03/28 03:39:22;;;;;;;18.02;2.33;;;;;;;0.97;100.00;102454.69;5065874;28;20055;-75
2023/03/28 03:41:49;;;;;;;10.95;2.33;;;;;;;0.96;100.00;102454.56;5066958;28;20055;-75
2023/03/28 03:44:16;;;;;;;11.15;2.47;;;;;;;0.95;100.00;102447.59;5066366;28;20040;-75
2023/03/28 03:46:44;;;;;;;10.10;2.17;;;;;;;0.91;100.00;102453.38;5033958;28;20044;-75
2023/03/28 03:49:12;;;;;;;8.07;2.45;;;;;;;0.90;100.00;102456.75;5031291;28;20057;-74
2023/03/28 03:51:40;;;;;;;11.82;2.80;;;;;;;0.89;100.00;102463.66;5025147;28;20040;-74
2023/03/28 03:54:07;;;;;;;7.05;1.98;;;;;;;0.87;100.00;102456.53;5055726;28;20077;-74
2023/03/28 03:56:37;;;;;;;12.38;2.40;;;;;;;0.83;100.00;102457.13;5051201;28;20055;-75
2023/03/28 03:59:06;;;;;;;8.98;2.70;;;;;;;0.82;100.00;102460.53;5031815;28;20040;-74
2023/03/28 04:01:38;;;;;;;12.63;1.90;;;;;;;0.81;100.00;102459.63;5021958;28;20048;-74
2023/03/28 04:04:32;;;;;;;8.43;2.00;;;;;;;0.78;100.00;102467.22;5049234;28;20083;-75
2023/03/28 04:07:14;;;;;;;14.13;2.13;;;;;;;0.73;100.00;102460.81;5018714;28;20052;-76
2023/03/28 04:09:45;;;;;;;7.13;2.65;;;;;;;0.70;100.00;102468.34;5020855;28;20061;-75
2023/03/28 04:12:13;;;;;;;12.35;2.40;;;;;;;0.65;100.00;102473.25;5056166;28;20048;-75
2023/03/28 04:14:45;;;;;;;13.00;2.35;;;;;;;0.62;100.00;102467.81;5047515;28;20048;-75
2023/03/28 04:17:33;;;;;;;8.00;2.30;;;;;;;0.58;100.00;102479.69;5059145;28;20059;-75
2023/03/28 04:20:13;;;;;;;12.52;2.88;;;;;;;0.57;100.00;102479.59;5042638;28;20067;-75
2023/03/28 04:22:59;;;;;;;8.63;2.38;;;;;;;0.54;100.00;102476.78;5002447;28;20071;-75
2023/03/28 04:25:30;;;;;;;7.40;2.28;;;;;;;0.52;100.00;102487.03;5036703;28;20063;-75
2023/03/28 04:28:03;;;;;;;9.60;2.20;;;;;;;0.52;100.00;102486.16;5020552;28;20048;-75
2023/03/28 04:30:37;;;;;;;11.80;2.60;;;;;;;0.51;100.00;102486.94;5047365;28;20515;-75
2023/03/28 04:33:32;;;;;;;12.40;2.03;;;;;;;0.50;100.00;102483.44;5052686;28;20053;-75
2023/03/28 04:36:02;;;;;;;8.70;2.40;;;;;;;0.48;100.00;102495.41;5046587;28;20044;-75
2023/03/28 04:38:34;;;;;;;14.70;2.60;;;;;;;0.46;100.00;102498.69;5015372;28;20068;-75
2023/03/28 04:41:37;;;;;;;15.80;2.72;;;;;;;0.41;100.00;102502.66;5009470;28;20064;-76
2023/03/28 04:44:25;;;;;;;7.57;1.90;;;;;;;0.37;100.00;102507.59;5052924;28;20067;-75
2023/03/28 04:46:57;;;;;;;6.47;1.92;;;;;;;0.33;100.00;102508.19;5039160;28;20041;-75
2023/03/28 04:49:25;;;;;;;5.90;2.83;;;;;;;0.30;100.00;102520.97;5052545;28;20698;-74
2023/03/28 04:51:53;;;;;;;8.85;2.83;;;;;;;0.27;100.00;102523.31;5057250;28;20049;-75
2023/03/28 04:54:20;;;;;;;7.07;2.25;;;;;;;0.24;100.00;102524.78;5020144;28;20052;-75
2023/03/28 04:56:48;;;;;;;8.25;2.33;;;;;;;0.23;100.00;102529.09;5066919;28;20071;-76
2023/03/28 04:59:22;;;;;;;9.77;2.08;;;;;;;0.23;100.00;102523.88;5053506;28;20134;-75
2023/03/28 05:01:52;;;;;;;5.65;1.92;;;;;;;0.24;100.00;102522.19;5044546;28;20396;-75
2023/03/28 05:04:58;;;;;;;18.38;2.13;;;;;;;0.28;100.00;102525.09;5039425;28;20052;-75
2023/03/28 05:07:27;;;;;;;9.65;2.42;;;;;;;0.33;100.00;102530.63;5025048;28;20044;-75
2023/03/28 05:09:55;;;;;;;6.40;1.85;;;;;;;0.34;100.00;102525.56;5013180;28;20053;-75
2023/03/28 05:12:22;;;;;;;14.63;2.58;;;;;;;0.36;100.00;102526.56;5018265;28;20047;-75
2023/03/28 05:15:10;;;;;;;11.27;2.70;;;;;;;0.38;100.00;102530.16;5047983;28;20052;-75
2023/03/28 05:18:15;;;;;;;8.73;2.28;;;;;;;0.41;100.00;102526.00;5039523;28;20052;-76
2023/03/28 05:20:42;;;;;;;11.48;2.70;;;;;;;0.39;100.00;102531.06;5041918;28;20593;-75
2023/03/28 05:23:11;;;;;;;9.75;2.30;;;;;;;0.38;100.00;102527.59;5046540;28;20052;-75
2023/03/28 05:25:41;;;;;;;9.73;1.85;;;;;;;0.39;100.00;102526.78;4990696;28;20060;-75
2023/03/28 05:28:09;;;;;;;11.02;2.30;;;;;;;0.39;100.00;102537.16;5015780;28;20049;-76
2023/03/28 05:30:47;;;;;;;9.95;2.83;;;;;;;0.38;100.00;102542.25;5062063;28;20048;-75
2023/03/28 05:33:15;;;;;;;10.38;1.83;;;;;;;0.37;100.00;102532.66;5030665;28;20045;-75
2023/03/28 05:35:44;;;;;;;9.32;2.10;;;;;;;0.37;100.00;102543.03;5056284;28;20068;-76
2023/03/28 05:38:13;;;;;;;9.88;2.05;;;;;;;0.36;100.00;102536.06;5063490;28;20036;-74
2023/03/28 05:40:41;;;;;;;9.70;2.50;;;;;;;0.31;100.00;102543.47;5012603;28;20132;-75
2023/03/28 05:43:10;;;;;;;14.45;2.97;;;;;;;0.29;100.00;102544.19;5013270;28;20310;-74
2023/03/28 05:45:40;;;;;;;;;;;;;;;0.29;100.00;102547.66;5054205;28;20044;-75
2023/03/28 05:48:11;;;;;;;8.40;2.28;;;;;;;0.28;100.00;102543.25;5043583;28;19920;-75
2023/03/28 05:50:40;;;;;;;11.80;2.28;;;;;;;0.28;100.00;102548.44;5053725;28;20040;-74
2023/03/28 05:53:10;;;;;;;9.70;2.42;;;;;;;0.30;100.00;102536.50;5046347;28;20064;-75
2023/03/28 05:55:39;;;;;;;9.90;2.47;;;;;;;0.32;100.00;102540.13;4999421;28;20056;-75
2023/03/28 05:58:07;;;;;;;7.22;2.22;;;;;;;0.34;100.00;102537.59;5042949;28;20546;-74
2023/03/28 06:00:41;;;;;;;9.27;2.45;;;;;;;0.38;100.00;102539.66;5060593;28;20056;-74
2023/03/28 06:03:09;;;;;;;10.87;3.37;;;;;;;0.44;100.00;102536.59;5042924;28;20049;-74
2023/03/28 06:05:44;;;;;;;12.77;2.60;;;;;;;0.49;100.00;102537.81;5048477;28;20311;-75
2023/03/28 06:08:19;;;;;;;7.32;2.30;;;;;;;0.56;100.00;102537.44;5032894;28;20067;-74
2023/03/28 06:10:47;;;;;;;11.85;2.47;;;;;;;0.59;100.00;102535.09;5019087;28;20053;-75
2023/03/28 06:13:26;;;;;;;4.68;2.42;;;;;;;0.63;100.00;102537.09;5014469;28;20392;-74
2023/03/28 06:15:54;;;;;;;11.05;2.38;;;;;;;0.66;100.00;102546.78;5032126;28;20055;-74
2023/03/28 06:18:29;;;;;;;9.63;2.28;;;;;;;0.70;100.00;102548.78;5048438;28;20673;-74
2023/03/28 06:20:57;;;;;;;9.05;2.22;;;;;;;0.74;100.00;102543.06;5049123;28;20063;-74
2023/03/28 06:23:24;;;;;;;9.20;3.20;;;;;;;0.81;100.00;102547.84;5080178;28;20044;-73
2023/03/28 06:25:52;;;;;;;8.70;2.45;;;;;;;0.90;100.00;102537.22;5018780;28;20116;-74
2023/03/28 06:28:21;;;;;;;11.35;2.85;;;;;;;0.98;100.00;102543.84;5031018;28;20056;-73
2023/03/28 06:31:07;;;;;;;11.75;2.47;;;;;;;1.09;100.00;102547.19;5047385;28;20064;-75
2023/03/28 06:33:35;;;;;;;14.68;2.97;;;;;;;1.16;100.00;102542.53;5020729;28;20052;-75
2023/03/28 06:36:04;;;;;;;6.20;2.58;;;;;;;1.24;100.00;102540.44;5063410;28;20182;-75
2023/03/28 06:38:33;;;;;;;13.85;3.63;;;;;;;1.33;100.00;102537.59;5039578;28;20044;-75
2023/03/28 06:41:02;;;;;;;9.35;2.65;;;;;;;1.43;100.00;102540.00;5020698;28;20052;-75
2023/03/28 06:43:32;;;;;;;4.68;2.28;;;;;;;1.56;100.00;102540.03;5062215;28;24805;-75
2023/03/28 06:46:06;;;;;;;8.85;2.40;;;;;;;1.71;100.00;102536.66;5051225;28;20052;-75
2023/03/28 06:48:38;;;;;;;15.35;2.65;;;;;;;1.88;100.00;102542.97;5058811;28;20702;-75
2023/03/28 06:51:43;;;;;;;10.60;2.67;;;;;;;2.10;100.00;102556.56;5052475;28;20059;-75
2023/03/28 06:54:11;;;;;;;11.13;2.50;;;;;;;2.28;100.00;102553.34;5059506;28;20049;-74
2023/03/28 06:56:38;;;;;;;12.27;2.80;;;;;;;2.40;100.00;102541.13;5017415;28;20064;-75
2023/03/28 06:59:06;;;;;;;14.48;2.70;;;;;;;2.51;100.00;102544.41;5060665;28;20407;-75
2023/03/28 07:01:34;;;;;;;8.90;2.22;;;;;;;2.64;100.00;102556.47;5045742;28;20056;-75
2023/03/28 07:04:06;;;;;;;8.32;2.40;;;;;;;2.79;100.00;102552.22;5056133;28;20056;-75
2023/03/28 07:06:36;;;;;;;12.68;2.78;;;;;;;3.06;100.00;102549.53;5030119;28;20594;-75
2023/03/28 07:09:04;;;;;;;7.40;2.25;;;;;;;3.40;100.00;102554.16;5049130;28;20064;-75
2023/03/28 07:11:50;;;;;;;15.20;2.50;;;;;;;3.57;100.00;102539.53;5049724;28;20063;-75
2023/03/28 07:14:18;;;;;;;16.70;2.97;;;;;;;3.69;100.00;102548.09;4977504;28;20072;-75
2023/03/28 07:16:45;;;;;;;17.58;3.30;;;;;;;3.79;100.00;102541.69;5050956;28;20106;-75
2023/03/28 07:19:13;;;;;;;12.27;2.20;;;;;;;3.86;100.00;102555.19;5043170;28;20080;-75
2023/03/28 07:21:43;;;;;;;13.63;2.70;;;;;;;3.89;100.00;102551.84;5033792;28;20775;-75
2023/03/28 07:24:10;;;;;;;11.38;3.20;;;;;;;3.97;100.00;102554.88;5047792;28;20060;-75
2023/03/28 07:27:08;;;;;;;15.75;3.67;;;;;;;3.93;100.00;102561.63;5046545;28;20403;-75
2023/03/28 07:29:44;;;;;;;6.65;2.92;;;;;;;3.91;100.00;102558.03;5041255;28;20897;-74
2023/03/28 07:32:12;;;;;;;10.27;2.38;;;;;;;3.92;100.00;102559.84;5036649;28;20053;-75
2023/03/28 07:34:42;;;;;;;8.65;2.80;;;;;;;3.87;100.00;102564.78;5048254;28;20045;-75
2023/03/28 07:37:15;;;;;;;12.65;3.47;;;;;;;3.88;100.00;102563.97;5064767;28;20040;-75
2023/03/28 07:39:56;;;;;;;9.45;2.55;;;;;;;3.93;100.00;102564.22;5058805;28;20052;-75
2023/03/28 07:42:26;;;;;;;12.32;2.65;;;;;;;3.94;100.00;102567.78;5039181;28;20059;-75
2023/03/28 07:44:54;;;;;;;14.02;3.60;;;;;;;3.97;100.00;102565.31;5003895;28;20529;-75
2023/03/28 07:47:22;;;;;;;19.80;3.72;;;;;;;3.98;100.00;102561.91;5048858;28;20510;-75
2023/03/28 07:49:50;;;;;;;9.95;2.40;;;;;;;4.00;100.00;102562.91;5032400;28;20056;-75
2023/03/28 07:52:19;;;;;;;13.18;2.85;;;;;;;4.03;100.00;102566.59;5044444;28;20052;-75
2023/03/28 07:54:46;;;;;;;10.35;2.05;;;;;;;4.08;100.00;102566.84;5036080;28;20059;-75
2023/03/28 07:57:14;;;;;;;11.48;2.72;;;;;;;4.15;100.00;102561.16;5056810;28;20045;-75
2023/03/28 07:59:55;;;;;;;7.63;2.30;;;;;;;4.15;100.00;102563.75;4995504;28;20061;-75
2023/03/28 08:02:23;;;;;;;7.35;2.40;;;;;;;4.17;100.00;102563.84;5069137;28;20068;-75
2023/03/28 08:04:52;;;;;;;10.30;2.35;;;;;;;4.16;100.00;102560.34;5034329;28;20056;-75
2023/03/28 08:07:24;;;;;;;14.45;2.58;;;;;;;4.40;100.00;102565.16;5051239;28;20033;-75
2023/03/28 08:09:52;;;;;;;13.00;3.00;;;;;;;4.97;100.00;102557.78;5042983;28;20052;-75
2023/03/28 08:12:26;;;;;;;7.85;2.30;;;;;;;5.57;100.00;102553.09;5044361;28;20123;-75
2023/03/28 08:14:54;;;;;;;7.35;2.55;;;;;;;6.02;100.00;102558.84;5044729;28;20068;-75
2023/03/28 08:17:23;;;;;;;9.82;2.53;;;;;;;6.31;100.00;102564.59;4999613;28;20044;-75
2023/03/28 08:19:52;;;;;;;8.15;2.22;;;;;;;6.52;100.00;102562.09;5048953;28;20047;-75
2023/03/28 08:22:28;;;;;;;7.25;1.90;;;;;;;6.74;100.00;102558.78;5076884;28;20051;-75
2023/03/28 08:25:28;;;;;;;6.75;2.83;;;;;;;7.08;100.00;102555.06;5046450;28;20083;-75
2023/03/28 08:27:56;;;;;;;11.68;2.33;;;;;;;7.19;100.00;102559.97;5042384;28;20052;-75
2023/03/28 08:30:23;;;;;;;7.15;1.63;;;;;;;7.24;100.00;102562.81;5025157;28;20063;-75
2023/03/28 08:32:57;;;;;;;11.68;2.42;;;;;;;7.30;100.00;102554.31;5046776;28;20052;-75
2023/03/28 08:35:25;;;;;;;7.80;2.03;;;;;;;7.40;100.00;102560.00;5045107;28;20049;-75
2023/03/28 08:37:56;;;;;;;10.05;2.08;;;;;;;7.49;100.00;102564.78;5030694;28;20423;-75
2023/03/28 08:40:27;;;;;;;10.77;1.77;;;;;;;7.54;100.00;102558.00;5060354;28;20055;-75
2023/03/28 08:43:23;;;;;;;2.90;1.50;;;;;;;7.68;100.00;102555.06;5049906;28;20060;-75
2023/03/28 08:45:56;;;;;;;6.53;1.27;;;;;;;7.80;100.00;102550.31;5042707;28;20052;-75
2023/03/28 08:48:27;;;;;;;5.00;1.60;;;;;;;7.75;100.00;102550.16;4982995;28;20080;-75
2023/03/28 08:51:13;;;;;;;4.15;1.48;;;;;;;7.73;100.00;102553.50;5025875;28;20060;-75
2023/03/28 08:53:47;;;;;;;9.75;1.80;;;;;;;7.82;100.00;102553.91;5037833;28;20055;-75
2023/03/28 08:56:15;;;;;;;5.35;1.33;;;;;;;7.80;100.00;102556.47;5041703;28;20098;-75
2023/03/28 08:58:53;;;;;;;7.10;2.45;;;;;;;7.81;99.54;102558.25;5055469;28;20044;-75
2023/03/28 09:01:22;;;;;;;4.47;1.10;;;;;;;7.70;95.55;102551.66;5024005;28;20661;-74
2023/03/28 09:03:49;;;;;;;5.97;1.60;;;;;;;7.59;95.04;102561.69;5050390;28;20057;-74
2023/03/28 09:06:38;;;;;;;3.42;1.30;;;;;;;7.45;85.04;102556.69;5032726;28;20063;-75
2023/03/28 09:09:13;;;;;;;8.43;1.95;;;;;;;7.26;91.22;102548.03;5056115;28;20396;-75
2023/03/28 09:11:59;;;;;;;4.18;1.20;;;;;;;7.14;87.86;102550.09;5056077;28;20059;-76
2023/03/28 09:14:32;;;;;;;6.15;1.30;;;;;;;6.99;87.17;102553.84;5034533;28;20060;-75
2023/03/28 09:17:11;;;;;;;3.95;1.13;;;;;;;6.93;85.92;102553.53;5009272;28;20423;-76
2023/03/28 09:19:39;;;;;;;5.07;1.20;;;;;;;6.92;90.16;102557.00;5042993;28;20219;-76
2023/03/28 09:22:40;;;;;;;4.00;1.20;;;;;;;6.93;91.46;102560.53;5050947;28;20079;-74
2023/03/28 09:25:23;;;;;;;5.43;1.65;;;;;;;7.03;91.71;102554.84;5062722;28;20057;-76
2023/03/28 09:28:06;;;;;;;4.50;1.45;;;;;;;7.26;88.52;102554.97;5047164;28;20064;-76
2023/03/28 09:30:41;;;;;;;5.23;1.40;;;;;;;7.33;88.39;102546.56;5056532;28;20695;-75
2023/03/28 09:33:15;;;;;;;8.52;3.25;;;;;;;7.28;85.11;102553.31;4989041;28;20470;-76
2023/03/28 09:35:45;;;;;;;4.93;1.10;;;;;;;7.19;86.10;102554.72;5023538;28;20817;-75
2023/03/28 09:38:16;;;;;;;5.13;1.35;;;;;;;7.13;86.30;102556.19;5043734;28;20411;-75
2023/03/28 09:40:50;;;;;;;43.65;6.22;;;;;;;7.11;89.04;102560.47;5059073;28;20045;-75
2023/03/28 09:43:52;;;;;;;8.00;2.40;;;;;;;7.11;89.34;102560.47;5012082;28;20053;-75
2023/03/28 09:46:31;;;;;;;5.03;1.08;;;;;;;7.06;87.53;102556.75;5051579;28;20068;-75
2023/03/28 09:49:23;;;;;;;3.33;1.20;;;;;;;7.00;83.41;102562.59;5023375;28;20127;-75
2023/03/28 09:51:58;;;;;;;4.72;1.13;;;;;;;6.98;87.55;102556.41;5070254;28;20052;-75
2023/03/28 09:54:33;;;;;;;2.72;1.15;;;;;;;6.86;79.05;102561.94;5029831;28;20052;-75
2023/03/28 09:57:03;;;;;;;10.38;1.60;;;;;;;6.71;83.72;102551.69;5056119;28;20052;-75
2023/03/28 09:59:50;;;;;;;5.60;1.05;;;;;;;6.67;83.95;102551.47;5063052;28;20057;-75
2023/03/28 10:02:31;;;;;;;5.97;1.50;;;;;;;6.68;85.53;102545.41;5008394;28;20053;-74
2023/03/28 10:05:24;;;;;;;7.85;1.63;;;;;;;6.74;86.86;102543.06;5050060;28;20060;-75
2023/03/28 10:07:57;;;;;;;9.27;1.42;;;;;;;6.82;87.83;102549.53;5038119;28;20056;-75
2023/03/28 10:11:11;;;;;;;6.95;1.33;;;;;;;6.91;87.27;102549.06;5043148;28;20068;-75
2023/03/28 10:13:41;;;;;;;5.20;1.67;;;;;;;7.01;87.60;102543.41;5045365;28;20064;-75
2023/03/28 10:16:11;;;;;;;336.13;37.55;;;;;;;7.18;86.92;102537.22;5064314;28;20044;-75
2023/03/28 10:19:13;;;;;;;3.42;1.13;;;;;;;7.39;85.85;102526.75;4998489;28;20041;-75
2023/03/28 10:22:31;;;;;;;4.68;1.10;;;;;;;7.67;78.58;102529.66;5048024;28;20040;-75
2023/03/28 10:25:03;;;;;;;5.95;1.17;;;;;;;7.72;80.55;102531.63;5064553;28;20059;-75
2023/03/28 10:27:33;;;;;;;1.83;0.95;;;;;;;7.70;80.71;102529.78;5062192;28;20072;-75
2023/03/28 10:30:14;;;;;;;;;;;;;;;7.67;71.13;102527.03;5074475;28;20832;-75
2023/03/28 10:32:44;;;;;;;3.47;1.50;;;;;;;7.61;80.62;102519.78;5048116;28;20023;-75
2023/03/28 10:35:26;;;;;;;5.40;2.10;;;;;;;7.72;82.17;102515.00;5010590;28;20064;-75
2023/03/28 10:38:14;;;;;;;2.90;1.15;;;;;;;7.95;82.64;102514.19;5047433;28;20053;-75
2023/03/28 10:40:58;;;;;;;5.15;1.70;;;;;;;8.22;81.79;102503.00;5060176;28;20068;-75
2023/03/28 10:43:41;;;;;;;3.45;1.00;;;;;;;8.48;81.89;102501.44;5049136;28;20052;-75
2023/03/28 10:46:40;;;;;;;3.20;1.25;;;;;;;8.62;79.48;102503.69;5036072;28;20044;-75
2023/03/28 10:49:18;;;;;;;6.55;1.30;;;;;;;8.75;79.76;102501.59;5028898;28;20530;-75
2023/03/28 10:52:29;;;;;;;3.83;1.27;;;;;;;8.65;69.28;102503.81;5050691;28;20057;-75
2023/03/28 10:55:15;;;;;;;2.03;1.17;;;;;;;8.55;74.18;102499.94;5050506;28;20060;-75
2023/03/28 10:57:57;;;;;;;4.32;1.20;;;;;;;8.56;75.26;102493.84;5061817;28;20052;-75
2023/03/28 11:00:35;;;;;;;4.57;1.20;;;;;;;8.53;75.99;102491.13;5062629;28;20036;-75
2023/03/28 11:03:21;;;;;;;4.45;1.23;;;;;;;8.47;71.71;102502.28;5066603;28;20045;-75
2023/03/28 11:05:56;;;;;;;3.60;1.10;;;;;;;8.31;70.74;102491.97;5008071;28;20061;-75
2023/03/28 11:09:00;;;;;;;3.55;1.40;;;;;;;8.15;68.20;102501.00;5062624;28;20059;-75
2023/03/28 11:12:02;;;;;;;4.13;1.25;;;;;;;8.07;74.34;102490.19;5035330;28;20071;-75
2023/03/28 11:14:51;;;;;;;4.68;1.80;;;;;;;8.02;71.71;102490.84;5046404;28;20037;-75
2023/03/28 11:17:42;;;;;;;6.60;1.50;;;;;;;7.98;75.33;102487.19;5057382;28;20064;-75
2023/03/28 11:20:21;;;;;;;5.80;1.30;;;;;;;7.90;74.28;102484.28;5038408;28;20594;-75
2023/03/28 11:23:30;;;;;;;2.10;1.02;;;;;;;7.87;69.37;102489.38;5020775;28;20144;-77
2023/03/28 11:26:51;;;;;;;9.07;1.90;;;;;;;7.78;71.03;102478.50;5035861;28;20049;-76
2023/03/28 11:29:59;;;;;;;4.55;1.60;;;;;;;7.77;73.34;102481.97;5035424;28;20048;-75
2023/03/28 11:32:45;;;;;;;4.97;1.40;;;;;;;7.79;76.81;102482.94;5044216;28;20491;-74
2023/03/28 11:35:31;;;;;;;14.43;2.10;;;;;;;7.81;76.51;102469.03;5048534;28;20049;-75
2023/03/28 11:38:21;;;;;;;4.93;1.45;;;;;;;7.87;79.46;102462.25;5013245;28;20057;-75
2023/03/28 11:40:53;;;;;;;20.85;3.63;;;;;;;7.92;80.53;102455.44;5062067;28;20471;-75
2023/03/28 11:43:51;;;;;;;7.18;1.33;;;;;;;7.99;77.11;102453.09;5046980;28;20059;-75
2023/03/28 11:46:50;;;;;;;6.38;1.33;;;;;;;8.02;77.84;102449.72;5037241;28;20906;-75
2023/03/28 11:49:24;;;;;;;5.53;1.30;;;;;;;8.11;79.51;102452.72;5034628;28;20045;-75
2023/03/28 11:51:59;;;;;;;8.13;1.50;;;;;;;8.17;78.66;102436.31;5050851;28;20163;-75
2023/03/28 11:54:42;;;;;;;4.80;1.77;;;;;;;8.21;78.00;102432.94;4992740;28;20048;-75
2023/03/28 11:57:30;;;;;;;3.28;1.40;;;;;;;8.30;80.76;102432.38;5053023;28;20044;-75
2023/03/28 12:00:38;;;;;;;3.15;1.38;;;;;;;8.55;78.91;102429.00;5071231;28;20048;-75
2023/03/28 12:03:29;;;;;;;2.53;1.20;;;;;;;8.72;78.83;102427.00;5061461;28;20060;-75
2023/03/28 12:06:04;;;;;;;3.38;1.23;;;;;;;8.82;75.47;102418.56;5057856;28;20052;-75
2023/03/28 12:08:42;;;;;;;4.30;1.48;;;;;;;8.91;76.89;102418.91;5003569;28;20040;-75
2023/03/28 12:11:17;;;;;;;4.07;1.60;;;;;;;9.06;76.10;102413.28;5061638;28;20922;-75